createdAt,value
2023-05-01T00:01:27.302Z,11.00
2023-05-01T00:03:53.948Z,10.39
2023-05-01T00:06:20.695Z,10.76
2023-05-01T00:08:47.302Z,10.99
2023-05-01T00:11:13.806Z,10.77
2023-05-01T00:13:40.325Z,10.65
2023-05-01T00:16:14.435Z,10.65
2023-05-01T00:18:40.965Z,10.58
2023-05-01T00:21:07.453Z,10.79
2023-05-01T00:23:33.989Z,10.69
2023-05-01T00:26:00.614Z,10.82
2023-05-01T00:28:27.305Z,10.80
2023-05-01T00:30:53.825Z,10.69
2023-05-01T00:33:20.312Z,10.34
2023-05-01T00:35:47.407Z,10.62
2023-05-01T00:38:13.897Z,10.15
2023-05-01T00:40:44.571Z,10.96
2023-05-01T00:43:11.945Z,10.86
2023-05-01T00:45:40.295Z,10.40
2023-05-01T00:48:07.232Z,10.26
2023-05-01T00:50:33.753Z,10.57
2023-05-01T00:53:00.569Z,11.13
2023-05-01T00:55:28.037Z,11.53
2023-05-01T00:57:56.353Z,10.73
2023-05-01T01:00:23.041Z,10.49
2023-05-01T01:02:49.706Z,10.45
2023-05-01T01:05:16.578Z,10.73
2023-05-01T01:08:11.464Z,11.14
2023-05-01T01:10:50.915Z,11.17
2023-05-01T01:13:27.793Z,11.36
2023-05-01T01:16:21.388Z,11.18
2023-05-01T01:19:15.615Z,11.06
2023-05-01T01:21:46.528Z,11.04
2023-05-01T01:24:42.245Z,11.04
2023-05-01T01:27:25.656Z,10.78
2023-05-01T01:30:27.596Z,11.17
2023-05-01T01:33:18.472Z,11.60
2023-05-01T01:35:54.923Z,10.96
2023-05-01T01:38:28.824Z,10.76
2023-05-01T01:41:06.262Z,10.01
2023-05-01T01:43:40.368Z,9.74
2023-05-01T01:46:09.348Z,8.88
2023-05-01T01:48:40.737Z,8.37
2023-05-01T01:51:16.350Z,7.94
2023-05-01T01:53:48.155Z,7.01
2023-05-01T01:56:17.483Z,6.73
2023-05-01T01:58:47.096Z,6.04
2023-05-01T02:01:19.252Z,5.50
2023-05-01T02:03:47.616Z,5.24
2023-05-01T02:06:17.486Z,5.16
2023-05-01T02:08:49.291Z,5.17
2023-05-01T02:11:20.407Z,4.58
2023-05-01T02:13:49.307Z,4.76
2023-05-01T02:16:17.551Z,4.60
2023-05-01T02:18:46.193Z,4.59
2023-05-01T02:21:14.733Z,4.45
2023-05-01T02:23:42.251Z,4.14
2023-05-01T02:26:15.337Z,3.88
2023-05-01T02:28:42.001Z,3.63
2023-05-01T02:31:09.703Z,3.92
2023-05-01T02:33:36.302Z,4.94
2023-05-01T02:36:03.016Z,5.07
2023-05-01T02:38:29.541Z,4.61
2023-05-01T02:40:58.119Z,6.37
2023-05-01T02:43:28.657Z,6.21
2023-05-01T02:45:58.206Z,6.45
2023-05-01T02:48:28.091Z,6.36
2023-05-01T02:50:58.103Z,6.07
2023-05-01T02:53:24.603Z,6.07
2023-05-01T02:55:51.150Z,5.52
2023-05-01T02:58:20.556Z,5.41
2023-05-01T03:00:51.109Z,5.25
2023-05-01T03:03:17.738Z,5.02
2023-05-01T03:05:44.408Z,4.83
2023-05-01T03:08:11.168Z,4.71
2023-05-01T03:10:40.115Z,4.49
2023-05-01T03:13:06.570Z,4.31
2023-05-01T03:15:33.050Z,4.59
2023-05-01T03:17:59.586Z,4.42
2023-05-01T03:20:27.433Z,4.58
2023-05-01T03:22:54.100Z,4.53
2023-05-01T03:25:20.607Z,6.69
2023-05-01T03:27:47.043Z,6.49
2023-05-01T03:30:13.517Z,8.13
2023-05-01T03:32:40.247Z,7.36
2023-05-01T03:35:07.169Z,7.76
2023-05-01T03:37:33.737Z,7.56
2023-05-01T03:40:00.328Z,8.94
2023-05-01T03:42:26.808Z,8.50
2023-05-01T03:44:53.316Z,8.05
2023-05-01T03:47:19.803Z,7.76
2023-05-01T03:49:46.281Z,7.39
2023-05-01T03:52:12.810Z,7.57
2023-05-01T03:54:39.314Z,7.70
2023-05-01T03:57:05.854Z,9.55
2023-05-01T03:59:32.369Z,10.11
2023-05-01T04:01:58.873Z,9.64
2023-05-01T04:04:25.535Z,9.53
2023-05-01T04:06:52.221Z,9.29
2023-05-01T04:09:18.737Z,8.90
2023-05-01T04:11:45.251Z,8.68
2023-05-01T04:14:11.789Z,8.41
2023-05-01T04:16:38.313Z,7.43
2023-05-01T04:19:04.883Z,6.94
2023-05-01T04:21:31.414Z,7.02
2023-05-01T04:23:57.894Z,7.26
2023-05-01T04:26:24.351Z,6.89
2023-05-01T04:28:50.886Z,6.17
2023-05-01T04:31:17.466Z,5.61
2023-05-01T04:33:44.036Z,4.86
2023-05-01T04:36:10.520Z,4.35
2023-05-01T04:38:37.040Z,3.70
2023-05-01T04:41:05.124Z,3.70
2023-05-01T04:43:31.664Z,3.50
2023-05-01T04:45:58.165Z,3.40
2023-05-01T04:48:24.624Z,3.44
2023-05-01T04:50:51.181Z,3.37
2023-05-01T04:53:17.656Z,3.42
2023-05-01T04:55:44.134Z,3.64
2023-05-01T04:58:10.644Z,3.79
2023-05-01T05:00:37.162Z,3.42
2023-05-01T05:03:03.817Z,3.60
2023-05-01T05:05:30.423Z,2.73
2023-05-01T05:07:56.899Z,2.79
2023-05-01T05:10:23.684Z,2.72
2023-05-01T05:12:50.234Z,2.48
2023-05-01T05:15:16.827Z,2.28
2023-05-01T05:17:43.349Z,2.27
2023-05-01T05:20:10.271Z,2.05
2023-05-01T05:22:37.361Z,1.89
2023-05-01T05:25:04.761Z,1.67
2023-05-01T05:27:31.236Z,1.71
2023-05-01T05:29:57.925Z,1.46
2023-05-01T05:32:24.715Z,1.49
2023-05-01T05:34:51.304Z,1.37
2023-05-01T05:37:17.788Z,1.36
2023-05-01T05:39:44.268Z,1.43
2023-05-01T05:42:10.728Z,1.33
2023-05-01T05:44:37.192Z,1.29
2023-05-01T05:47:03.661Z,1.45
2023-05-01T05:49:30.845Z,1.92
2023-05-01T05:51:57.327Z,1.82
2023-05-01T05:54:23.902Z,1.82
2023-05-01T05:56:50.391Z,2.00
2023-05-01T05:59:17.511Z,1.98
2023-05-01T06:01:44.365Z,1.41
2023-05-01T06:04:10.859Z,1.32
2023-05-01T06:06:37.879Z,1.41
2023-05-01T06:09:04.647Z,1.44
2023-05-01T06:11:31.159Z,1.36
2023-05-01T06:13:57.714Z,1.48
2023-05-01T06:16:24.326Z,1.48
2023-05-01T06:18:50.965Z,1.55
2023-05-01T06:21:17.457Z,1.68
2023-05-01T06:23:43.946Z,1.75
2023-05-01T06:26:10.534Z,1.46
2023-05-01T06:28:36.993Z,1.76
2023-05-01T06:31:03.503Z,1.93
2023-05-01T06:33:30.057Z,2.13
2023-05-01T06:35:56.600Z,1.29
2023-05-01T06:38:24.996Z,1.25
2023-05-01T06:40:53.150Z,1.16
2023-05-01T06:43:19.650Z,1.01
2023-05-01T06:45:46.134Z,1.11
2023-05-01T06:48:12.750Z,1.11
2023-05-01T06:50:39.374Z,1.13
2023-05-01T06:53:05.883Z,1.68
2023-05-01T06:55:33.798Z,1.99
2023-05-01T06:58:04.823Z,1.43
2023-05-01T07:00:39.135Z,1.45
2023-05-01T07:03:05.899Z,1.72
2023-05-01T07:05:32.630Z,2.05
2023-05-01T07:08:01.494Z,1.96
2023-05-01T07:10:28.604Z,1.87
2023-05-01T07:12:55.151Z,1.63
2023-05-01T07:15:21.798Z,1.87
2023-05-01T07:17:48.324Z,2.01
2023-05-01T07:20:14.867Z,2.75
2023-05-01T07:22:41.312Z,2.27
2023-05-01T07:25:08.234Z,2.21
2023-05-01T07:27:34.858Z,3.22
2023-05-01T07:30:01.487Z,2.47
2023-05-01T07:32:28.123Z,2.58
2023-05-01T07:34:54.629Z,3.66
2023-05-01T07:37:21.105Z,2.80
2023-05-01T07:39:47.565Z,2.46
2023-05-01T07:42:14.084Z,2.17
2023-05-01T07:44:40.589Z,2.26
2023-05-01T07:47:07.079Z,1.69
2023-05-01T07:49:37.882Z,1.63
2023-05-01T07:52:05.287Z,3.46
2023-05-01T07:54:31.757Z,4.07
2023-05-01T07:56:58.295Z,3.83
2023-05-01T07:59:24.802Z,4.74
2023-05-01T08:01:51.366Z,3.78
2023-05-01T08:04:17.907Z,3.64
2023-05-01T08:06:44.733Z,3.43
2023-05-01T08:09:11.285Z,3.36
2023-05-01T08:11:37.766Z,2.89
2023-05-01T08:14:04.229Z,3.26
2023-05-01T08:16:30.799Z,2.05
2023-05-01T08:18:57.429Z,2.29
2023-05-01T08:21:23.968Z,1.93
2023-05-01T08:23:50.461Z,2.62
2023-05-01T08:26:17.148Z,2.76
2023-05-01T08:28:43.656Z,2.39
2023-05-01T08:31:10.388Z,2.03
2023-05-01T08:33:36.938Z,2.14
2023-05-01T08:36:03.573Z,2.38
2023-05-01T08:38:30.077Z,2.29
2023-05-01T08:40:56.601Z,2.43
2023-05-01T08:43:24.875Z,2.43
2023-05-01T08:45:55.554Z,2.34
2023-05-01T08:48:25.194Z,2.82
2023-05-01T08:50:55.405Z,3.05
2023-05-01T08:53:22.823Z,2.92
2023-05-01T08:55:51.801Z,3.53
2023-05-01T08:58:19.302Z,4.13
2023-05-01T09:00:49.316Z,4.06
2023-05-01T09:03:17.289Z,4.18
2023-05-01T09:05:46.230Z,4.22
2023-05-01T09:08:12.729Z,4.50
2023-05-01T09:10:44.993Z,5.59
2023-05-01T09:13:11.574Z,4.51
2023-05-01T09:15:38.589Z,4.82
2023-05-01T09:18:05.327Z,4.37
2023-05-01T09:20:32.050Z,4.19
2023-05-01T09:22:58.689Z,4.71
2023-05-01T09:25:25.216Z,4.90
2023-05-01T09:27:52.233Z,5.16
2023-05-01T09:30:33.687Z,4.55
2023-05-01T09:33:13.543Z,5.20
2023-05-01T09:35:51.585Z,3.84
2023-05-01T09:38:20.375Z,3.89
2023-05-01T09:40:47.091Z,4.26
2023-05-01T09:43:13.659Z,4.17
2023-05-01T09:45:42.514Z,4.19
2023-05-01T09:48:10.647Z,4.68
2023-05-01T09:50:37.633Z,4.82
2023-05-01T09:53:05.374Z,4.58
2023-05-01T09:55:33.320Z,4.27
2023-05-01T09:58:00.083Z,4.52
2023-05-01T10:00:27.724Z,4.66
2023-05-01T10:02:54.533Z,4.66
2023-05-01T10:05:21.143Z,4.49
2023-05-01T10:07:59.249Z,4.32
2023-05-01T10:10:26.591Z,5.12
2023-05-01T10:12:53.831Z,4.66
2023-05-01T10:15:26.332Z,4.38
2023-05-01T10:17:54.401Z,4.73
2023-05-01T10:20:21.553Z,4.67
2023-05-01T10:22:48.196Z,4.56
2023-05-01T10:25:17.459Z,4.41
2023-05-01T10:27:44.089Z,4.44
2023-05-01T10:30:10.899Z,5.21
2023-05-01T10:32:40.782Z,4.67
2023-05-01T10:35:13.994Z,4.52
2023-05-01T10:38:08.703Z,4.96
2023-05-01T10:40:49.086Z,5.24
2023-05-01T10:43:23.301Z,5.26
2023-05-01T10:45:49.906Z,5.63
2023-05-01T10:48:37.955Z,5.58
2023-05-01T10:51:17.577Z,5.12
2023-05-01T10:53:46.913Z,4.67
2023-05-01T10:56:22.411Z,4.53
2023-05-01T10:59:05.368Z,4.54
2023-05-01T11:01:41.893Z,4.12
2023-05-01T11:04:20.246Z,4.16
2023-05-01T11:07:02.000Z,4.23
2023-05-01T11:09:42.936Z,3.67
2023-05-01T11:12:13.733Z,3.82
2023-05-01T11:14:55.451Z,3.88
2023-05-01T11:17:40.344Z,3.53
2023-05-01T11:20:11.173Z,3.34
2023-05-01T11:22:39.991Z,3.65
2023-05-01T11:25:26.956Z,3.53
2023-05-01T11:27:57.545Z,3.62
2023-05-01T11:30:25.068Z,3.37
2023-05-01T11:32:52.383Z,3.49
2023-05-01T11:35:19.655Z,3.63
2023-05-01T11:37:47.315Z,3.63
2023-05-01T11:40:21.562Z,3.28
2023-05-01T11:42:49.234Z,3.13
2023-05-01T11:45:16.228Z,3.77
2023-05-01T11:47:42.984Z,3.06
2023-05-01T11:50:10.742Z,2.70
2023-05-01T11:52:45.306Z,2.50
2023-05-01T11:55:15.337Z,2.53
2023-05-01T11:57:53.066Z,2.67
2023-05-01T12:00:34.143Z,3.27
2023-05-01T12:03:06.970Z,3.17
2023-05-01T12:05:35.767Z,3.23
2023-05-01T12:08:18.359Z,2.81
2023-05-01T12:10:51.271Z,2.52
2023-05-01T12:13:18.495Z,2.64
2023-05-01T12:15:52.129Z,2.18
2023-05-01T12:18:19.737Z,2.30
2023-05-01T12:20:48.689Z,2.36
2023-05-01T12:23:16.753Z,1.99
2023-05-01T12:25:45.577Z,2.35
2023-05-01T12:28:17.577Z,2.50
2023-05-01T12:30:45.300Z,2.03
2023-05-01T12:33:21.695Z,2.07
2023-05-01T12:35:50.035Z,2.33
2023-05-01T12:38:17.938Z,2.03
2023-05-01T12:40:55.809Z,1.95
2023-05-01T12:43:31.933Z,2.05
2023-05-01T12:45:59.146Z,1.96
2023-05-01T12:48:26.407Z,2.00
2023-05-01T12:50:53.387Z,1.99
2023-05-01T12:53:28.595Z,1.98
2023-05-01T12:55:57.680Z,1.99
2023-05-01T12:58:34.721Z,2.03
2023-05-01T13:01:01.359Z,1.83
2023-05-01T13:03:29.761Z,1.98
2023-05-01T13:06:02.415Z,3.85
2023-05-01T13:08:39.585Z,3.09
2023-05-01T13:11:14.473Z,1.57
2023-05-01T13:13:42.443Z,1.94
2023-05-01T13:16:12.872Z,2.33
2023-05-01T13:18:50.867Z,2.36
2023-05-01T13:21:24.662Z,2.22
2023-05-01T13:23:55.451Z,1.97
2023-05-01T13:26:33.090Z,1.76
2023-05-01T13:29:01.948Z,2.21
2023-05-01T13:31:29.769Z,1.98
2023-05-01T13:33:58.686Z,1.93
2023-05-01T13:36:27.052Z,1.60
2023-05-01T13:38:56.632Z,2.05
2023-05-01T13:41:26.284Z,1.95
2023-05-01T13:43:54.846Z,1.73
2023-05-01T13:46:23.746Z,1.76
2023-05-01T13:48:50.400Z,2.00
2023-05-01T13:51:25.161Z,1.91
2023-05-01T13:53:52.092Z,1.61
2023-05-01T13:56:19.123Z,1.76
2023-05-01T13:58:45.769Z,1.59
2023-05-01T14:01:17.931Z,1.51
2023-05-01T14:03:44.592Z,1.73
2023-05-01T14:06:16.213Z,1.70
2023-05-01T14:08:43.858Z,1.97
2023-05-01T14:11:11.435Z,2.12
2023-05-01T14:13:43.348Z,1.82
2023-05-01T14:16:16.990Z,1.66
2023-05-01T14:18:45.743Z,1.49
2023-05-01T14:21:14.793Z,2.47
2023-05-01T14:23:41.613Z,2.25
2023-05-01T14:26:09.018Z,1.60
2023-05-01T14:28:43.141Z,1.61
2023-05-01T14:31:16.972Z,1.62
2023-05-01T14:33:44.220Z,1.71
2023-05-01T14:36:12.649Z,1.64
2023-05-01T14:38:40.012Z,1.94
2023-05-01T14:41:07.338Z,1.29
2023-05-01T14:43:35.403Z,1.50
2023-05-01T14:46:02.034Z,1.66
2023-05-01T14:48:35.796Z,1.77
2023-05-01T14:51:04.709Z,2.15
2023-05-01T14:53:32.627Z,1.56
2023-05-01T14:55:59.367Z,1.60
2023-05-01T14:58:25.860Z,1.45
2023-05-01T15:00:52.378Z,1.50
2023-05-01T15:03:18.931Z,2.26
2023-05-01T15:05:45.657Z,2.50
2023-05-01T15:08:12.191Z,2.21
2023-05-01T15:10:41.471Z,1.43
2023-05-01T15:13:08.039Z,1.47
2023-05-01T15:15:36.687Z,1.48
2023-05-01T15:18:05.408Z,1.96
2023-05-01T15:20:31.928Z,2.45
2023-05-01T15:22:58.444Z,2.35
2023-05-01T15:25:24.940Z,1.30
2023-05-01T15:27:54.913Z,1.44
2023-05-01T15:30:21.384Z,1.39
2023-05-01T15:32:51.294Z,1.50
2023-05-01T15:35:17.973Z,1.64
2023-05-01T15:37:44.583Z,2.23
2023-05-01T15:40:11.479Z,2.64
2023-05-01T15:42:38.178Z,1.49
2023-05-01T15:45:05.320Z,1.49
2023-05-01T15:47:31.887Z,1.74
2023-05-01T15:49:58.531Z,1.89
2023-05-01T15:52:25.217Z,2.04
2023-05-01T15:54:51.699Z,1.88
2023-05-01T15:57:18.169Z,1.74
2023-05-01T15:59:44.846Z,1.55
2023-05-01T16:02:11.526Z,1.55
2023-05-01T16:04:38.197Z,1.89
2023-05-01T16:07:04.769Z,1.79
2023-05-01T16:09:31.998Z,1.71
2023-05-01T16:11:59.349Z,2.47
2023-05-01T16:14:26.084Z,2.20
2023-05-01T16:16:52.788Z,1.94
2023-05-01T16:19:19.702Z,2.17
2023-05-01T16:21:46.299Z,2.44
2023-05-01T16:24:13.745Z,2.29
2023-05-01T16:26:40.736Z,1.78
2023-05-01T16:29:08.119Z,2.01
2023-05-01T16:31:39.042Z,2.17
2023-05-01T16:34:07.238Z,2.13
2023-05-01T16:36:41.211Z,1.87
2023-05-01T16:39:10.281Z,1.84
2023-05-01T16:41:43.901Z,1.79
2023-05-01T16:44:10.528Z,1.67
2023-05-01T16:46:40.715Z,1.92
2023-05-01T16:49:10.779Z,2.03
2023-05-01T16:51:39.210Z,2.24
2023-05-01T16:54:05.704Z,1.93
2023-05-01T16:56:34.820Z,2.00
2023-05-01T16:59:01.342Z,2.20
2023-05-01T17:01:27.931Z,2.04
2023-05-01T17:03:54.440Z,2.04
2023-05-01T17:06:21.228Z,2.13
2023-05-01T17:08:47.757Z,2.16
2023-05-01T17:11:14.397Z,2.63
2023-05-01T17:13:41.452Z,3.29
2023-05-01T17:16:09.078Z,2.64
2023-05-01T17:18:36.016Z,2.98
2023-05-01T17:21:03.715Z,2.47
2023-05-01T17:23:30.220Z,3.54
2023-05-01T17:25:56.747Z,3.17
2023-05-01T17:28:23.219Z,3.17
2023-05-01T17:30:50.247Z,3.65
2023-05-01T17:33:16.836Z,3.98
2023-05-01T17:35:43.554Z,3.92
2023-05-01T17:38:10.065Z,4.74
2023-05-01T17:40:36.572Z,3.62
2023-05-01T17:43:03.180Z,3.67
2023-05-01T17:45:29.710Z,3.71
2023-05-01T17:47:56.276Z,4.33
2023-05-01T17:50:22.840Z,4.05
2023-05-01T17:52:49.380Z,3.68
2023-05-01T17:55:18.064Z,4.46
2023-05-01T17:57:45.686Z,4.67
2023-05-01T18:00:12.773Z,4.27
2023-05-01T18:02:39.537Z,4.44
2023-05-01T18:05:06.364Z,4.87
2023-05-01T18:07:32.920Z,4.68
2023-05-01T18:09:59.942Z,4.35
2023-05-01T18:12:26.821Z,4.27
2023-05-01T18:14:53.397Z,5.17
2023-05-01T18:17:22.450Z,4.29
2023-05-01T18:19:49.693Z,4.29
2023-05-01T18:22:16.299Z,3.74
2023-05-01T18:24:55.943Z,4.52
2023-05-01T18:27:25.096Z,4.23
2023-05-01T18:29:52.872Z,3.28
2023-05-01T18:32:45.993Z,3.82
2023-05-01T18:35:13.213Z,3.79
2023-05-01T18:37:40.554Z,3.82
2023-05-01T18:40:07.853Z,4.52
2023-05-01T18:42:34.345Z,3.95
2023-05-01T18:45:02.865Z,3.70
2023-05-01T18:47:29.475Z,4.19
2023-05-01T18:49:56.178Z,4.98
2023-05-01T18:52:22.784Z,6.08
2023-05-01T18:54:59.761Z,5.36
2023-05-01T18:57:26.422Z,5.82
2023-05-01T18:59:52.987Z,5.78
2023-05-01T19:02:19.538Z,5.74
2023-05-01T19:07:15.477Z,3.68
2023-05-01T19:09:41.973Z,4.25
2023-05-01T19:12:08.429Z,3.93
2023-05-01T19:14:34.974Z,3.49
2023-05-01T19:17:01.496Z,5.69
2023-05-01T19:19:27.985Z,5.47
2023-05-01T19:21:54.517Z,3.61
2023-05-01T19:24:21.037Z,4.02
2023-05-01T19:26:47.548Z,3.58
2023-05-01T19:29:14.084Z,4.17
2023-05-01T19:31:43.672Z,3.95
2023-05-01T19:34:10.347Z,3.65
2023-05-01T19:36:36.987Z,3.71
2023-05-01T19:39:03.669Z,3.80
2023-05-01T19:41:30.291Z,3.71
2023-05-01T19:43:56.850Z,3.30
2023-05-01T19:46:23.464Z,3.42
2023-05-01T19:48:53.095Z,3.60
2023-05-01T19:51:19.643Z,3.52
2023-05-01T19:53:46.146Z,3.58
2023-05-01T19:56:12.657Z,3.47
2023-05-01T19:58:39.152Z,4.42
2023-05-01T20:01:08.019Z,4.06
2023-05-01T20:03:34.744Z,3.36
2023-05-01T20:06:08.462Z,3.52
2023-05-01T20:08:35.016Z,3.64
2023-05-01T20:11:01.622Z,3.69
2023-05-01T20:13:28.169Z,3.44
2023-05-01T20:15:54.643Z,3.66
2023-05-01T20:18:21.292Z,3.75
2023-05-01T20:20:47.974Z,3.75
2023-05-01T20:23:17.133Z,3.53
2023-05-01T20:25:43.622Z,3.77
2023-05-01T20:28:11.702Z,3.97
2023-05-01T20:30:39.570Z,4.15
2023-05-01T20:33:07.101Z,4.05
2023-05-01T20:35:33.761Z,4.22
2023-05-01T20:38:01.539Z,4.91
2023-05-01T20:40:29.031Z,5.22
2023-05-01T20:42:55.917Z,5.59
2023-05-01T20:45:22.401Z,5.76
2023-05-01T20:47:48.928Z,5.84
2023-05-01T20:50:15.522Z,5.97
2023-05-01T20:52:42.136Z,5.80
2023-05-01T20:55:09.184Z,5.94
2023-05-01T20:57:36.839Z,6.17
2023-05-01T21:00:03.862Z,6.21
2023-05-01T21:02:30.643Z,5.72
2023-05-01T21:04:57.153Z,6.16
2023-05-01T21:07:23.642Z,6.27
2023-05-01T21:09:50.120Z,5.97
2023-05-01T21:12:16.584Z,5.99
2023-05-01T21:14:43.051Z,5.93
2023-05-01T21:17:09.607Z,5.52
2023-05-01T21:19:45.044Z,5.49
2023-05-01T21:22:21.079Z,5.45
2023-05-01T21:24:59.585Z,5.04
2023-05-01T21:27:27.404Z,4.99
2023-05-01T21:30:00.506Z,4.97
2023-05-01T21:32:32.951Z,4.77
2023-05-01T21:35:00.621Z,4.64
2023-05-01T21:37:27.356Z,4.68
2023-05-01T21:39:53.921Z,4.73
2023-05-01T21:42:20.432Z,5.04
2023-05-01T21:44:47.054Z,4.79
2023-05-01T21:47:15.485Z,4.46
2023-05-01T21:49:42.094Z,4.02
2023-05-01T21:52:08.584Z,3.59
2023-05-01T21:54:38.498Z,3.27
2023-05-01T21:57:04.998Z,2.91
2023-05-01T21:59:37.662Z,2.63
2023-05-01T22:02:07.277Z,2.33
2023-05-01T22:04:34.832Z,2.18
2023-05-01T22:07:01.631Z,2.17
2023-05-01T22:09:28.508Z,2.26
2023-05-01T22:11:55.667Z,2.19
2023-05-01T22:14:22.167Z,1.97
2023-05-01T22:16:48.715Z,2.13
2023-05-01T22:19:15.297Z,2.19
2023-05-01T22:21:42.365Z,2.23
2023-05-01T22:24:08.914Z,2.00
2023-05-01T22:26:35.491Z,2.31
2023-05-01T22:29:02.012Z,2.22
2023-05-01T22:31:28.606Z,2.14
2023-05-01T22:33:55.232Z,1.96
2023-05-01T22:36:21.739Z,2.06
2023-05-01T22:38:48.200Z,2.04
2023-05-01T22:41:14.733Z,2.06
2023-05-01T22:43:41.202Z,2.18
2023-05-01T22:46:07.783Z,2.22
2023-05-01T22:48:34.286Z,2.13
2023-05-01T22:51:00.839Z,2.09
2023-05-01T22:53:27.414Z,2.32
2023-05-01T22:55:53.917Z,2.26
2023-05-01T22:58:20.404Z,2.21
2023-05-01T23:00:46.951Z,2.32
2023-05-01T23:03:13.514Z,2.16
2023-05-01T23:05:40.057Z,2.23
2023-05-01T23:08:06.756Z,2.19
2023-05-01T23:10:34.000Z,2.39
2023-05-01T23:13:00.553Z,2.31
2023-05-01T23:15:27.156Z,2.33
2023-05-01T23:17:53.739Z,2.42
2023-05-01T23:20:22.346Z,2.59
2023-05-01T23:22:49.357Z,2.59
2023-05-01T23:25:24.935Z,2.45
2023-05-01T23:27:54.715Z,2.49
2023-05-01T23:30:23.827Z,2.62
2023-05-01T23:32:50.482Z,2.72
2023-05-01T23:35:21.963Z,2.52
2023-05-01T23:37:48.557Z,2.58
2023-05-01T23:40:15.033Z,2.65
2023-05-01T23:42:41.567Z,2.77
2023-05-01T23:45:08.377Z,2.87
2023-05-01T23:47:35.935Z,2.67
2023-05-01T23:50:02.709Z,2.77
2023-05-01T23:52:29.480Z,2.81
2023-05-01T23:54:56.040Z,2.92
2023-05-01T23:57:23.661Z,3.03
2023-05-01T23:59:50.147Z,2.98
